Time;durP1;ratioP1;P1;durP2;ratioP2;P2;SDS_P1;SDS_P2;PMS_P1;PMS_P2;Temp;Humidity;BMP_temperature;BMP_pressure;BME280_temperature;BME280_humidity;BME280_pressure;Samples;Min_cycle;Max_cycle;Signal;HPM_P1;HPM_P2
2021/09/13 00:01:07;;;;;;;19.00;16.50;;;;;;;15.19;85.87;100365.00;94581;1193;81576;-62
2021/09/13 00:03:11;;;;;;;20.70;17.30;;;;;;;15.20;85.85;100360.55;94581;1192;97397;-63
2021/09/13 00:05:15;;;;;;;17.70;15.80;;;;;;;15.23;85.86;100364.48;94586;1192;88313;-59
2021/09/13 00:07:19;;;;;;;20.40;18.20;;;;;;;15.26;85.98;100360.09;94663;1193;95214;-63
2021/09/13 00:09:24;;;;;;;19.20;17.20;;;;;;;15.27;85.93;100360.05;94604;1193;81428;-77
2021/09/13 00:11:28;;;;;;;19.30;17.20;;;;;;;15.31;85.99;100363.23;94632;1193;80480;-79
2021/09/13 00:13:32;;;;;;;20.60;17.60;;;;;;;15.36;85.94;100368.44;94656;1192;99292;-78
2021/09/13 00:15:37;;;;;;;22.30;18.20;;;;;;;15.41;85.94;100365.47;94656;1192;88179;-62
2021/09/13 00:17:41;;;;;;;22.60;19.50;;;;;;;15.44;85.98;100361.89;94677;1192;94013;-63
2021/09/13 00:19:46;;;;;;;24.10;19.00;;;;;;;15.48;86.10;100362.64;94652;1192;81342;-77
2021/09/13 00:21:50;;;;;;;19.80;17.70;;;;;;;15.53;86.07;100363.60;94634;1192;81755;-77
2021/09/13 00:23:54;;;;;;;21.40;18.70;;;;;;;15.56;86.13;100362.02;94649;1192;99216;-79
2021/09/13 00:25:58;;;;;;;20.50;18.00;;;;;;;15.58;86.17;100362.34;94645;1192;85481;-63
2021/09/13 00:28:02;;;;;;;20.00;17.80;;;;;;;15.61;86.21;100357.71;94658;1192;93952;-62
2021/09/13 00:30:09;;;;;;;21.00;18.70;;;;;;;15.64;86.19;100358.52;94650;1192;80076;-79
2021/09/13 00:32:13;;;;;;;23.00;19.00;;;;;;;15.67;86.14;100361.30;94658;1192;81108;-79
2021/09/13 00:34:17;;;;;;;21.80;19.40;;;;;;;15.69;86.07;100362.11;94643;1193;99075;-75
2021/09/13 00:36:21;;;;;;;20.90;18.80;;;;;;;15.67;86.03;100363.77;94638;1192;86853;-65
2021/09/13 00:38:26;;;;;;;20.60;18.40;;;;;;;15.67;86.01;100363.73;94667;1192;91917;-66
2021/09/13 00:40:30;;;;;;;22.60;19.00;;;;;;;15.64;85.95;100363.16;94624;1178;79564;-65
2021/09/13 00:42:34;;;;;;;22.10;19.80;;;;;;;15.64;85.97;100363.30;94657;1193;81916;-65
2021/09/13 00:44:38;;;;;;;21.90;19.60;;;;;;;15.62;85.92;100356.65;94624;1192;97507;-78
2021/09/13 00:46:45;;;;;;;20.10;17.50;;;;;;;15.62;85.87;100361.52;94662;1193;88071;-78
2021/09/13 00:48:53;;;;;;;21.20;19.00;;;;;;;15.59;85.77;100359.36;94726;1193;93104;-78
2021/09/13 00:50:57;;;;;;;23.50;19.50;;;;;;;15.55;85.85;100363.57;94635;1192;79095;-67
2021/09/13 00:53:01;;;;;;;21.30;19.00;;;;;;;15.53;85.85;100366.11;94664;1192;82081;-67
2021/09/13 00:55:08;;;;;;;21.60;19.20;;;;;;;15.52;85.89;100372.19;94636;1192;97156;-65
2021/09/13 00:57:13;;;;;;;20.10;17.90;;;;;;;15.52;85.93;100375.05;94651;1192;88189;-65
2021/09/13 00:59:18;;;;;;;21.50;18.60;;;;;;;15.51;85.91;100377.23;94357;1192;93950;-65
2021/09/13 01:01:22;;;;;;;23.50;18.60;;;;;;;15.48;85.98;100374.23;94610;1193;79281;-65
2021/09/13 01:03:26;;;;;;;21.40;19.30;;;;;;;15.52;85.94;100376.92;94643;1192;82260;-64
2021/09/13 01:05:33;;;;;;;22.40;19.60;;;;;;;15.57;85.93;100374.45;94629;1192;97353;-65
2021/09/13 01:07:38;;;;;;;21.50;18.20;;;;;;;15.55;85.94;100374.39;94633;1192;87879;-65
2021/09/13 01:09:45;;;;;;;22.20;19.10;;;;;;;15.50;85.98;100373.38;94645;1192;92708;-65
2021/09/13 01:11:53;;;;;;;21.10;18.60;;;;;;;15.49;85.98;100367.07;94676;1193;79770;-66
2021/09/13 01:13:57;;;;;;;20.60;18.40;;;;;;;15.46;85.95;100371.08;94614;1192;80025;-65
2021/09/13 01:16:05;;;;;;;19.40;17.30;;;;;;;15.46;85.97;100367.00;94642;1193;96298;-65
2021/09/13 01:18:10;;;;;;;20.70;17.50;;;;;;;15.49;85.93;100367.79;94327;1192;87436;-63
2021/09/13 01:20:17;;;;;;;20.40;17.80;;;;;;;15.48;85.95;100366.08;94661;1192;94333;-74
2021/09/13 01:22:26;;;;;;;20.20;18.10;;;;;;;15.46;85.88;100361.68;94642;1192;79454;-75
2021/09/13 01:24:32;;;;;;;21.10;18.10;;;;;;;15.45;85.89;100361.85;94608;1192;81454;-75
2021/09/13 01:26:36;;;;;;;20.50;18.40;;;;;;;15.40;85.92;100361.17;94652;1192;97657;-75
2021/09/13 01:28:43;;;;;;;20.10;17.90;;;;;;;15.36;85.92;100362.32;94664;1192;87370;-76
2021/09/13 01:30:48;;;;;;;19.60;17.60;;;;;;;15.33;85.80;100367.91;94583;1193;94634;-76
2021/09/13 01:32:52;;;;;;;21.90;17.70;;;;;;;15.31;85.80;100370.69;94630;1192;78712;-75
2021/09/13 01:34:56;;;;;;;20.20;17.90;;;;;;;15.31;85.90;100373.29;94644;1193;81740;-64
2021/09/13 01:37:01;;;;;;;22.80;18.60;;;;;;;15.27;85.98;100369.64;94625;1192;98942;-65
2021/09/13 01:39:08;;;;;;;21.20;18.70;;;;;;;15.22;85.98;100366.83;94622;1192;88487;-66
2021/09/13 01:41:12;;;;;;;20.30;18.20;;;;;;;15.19;86.00;100362.83;94601;1193;94288;-65
2021/09/13 01:43:16;;;;;;;19.80;17.80;;;;;;;15.16;86.01;100363.05;94613;1193;78777;-65
2021/09/13 01:45:21;;;;;;;21.40;19.10;;;;;;;15.16;86.01;100364.98;94637;1192;81365;-80
2021/09/13 01:47:28;;;;;;;20.90;18.20;;;;;;;15.17;86.01;100365.77;94606;1192;98624;-80
2021/09/13 01:49:33;;;;;;;23.80;18.10;;;;;;;15.15;85.95;100365.48;94619;1192;86848;-80
2021/09/13 01:51:38;;;;;;;19.80;17.70;;;;;;;15.10;85.98;100366.58;94579;1192;93762;-79
2021/09/13 01:53:43;;;;;;;20.10;18.20;;;;;;;15.07;85.96;100364.92;94602;1193;80300;-80
2021/09/13 01:55:47;;;;;;;21.70;17.90;;;;;;;15.05;86.01;100364.00;94610;1192;81551;-65
2021/09/13 01:57:51;;;;;;;18.80;16.80;;;;;;;15.02;85.99;100361.07;94582;1192;97765;-65
2021/09/13 01:59:55;;;;;;;19.50;17.00;;;;;;;14.99;86.05;100357.80;94607;1193;87657;-77
2021/09/13 02:01:59;;;;;;;21.70;17.00;;;;;;;14.92;86.18;100359.95;94564;1193;94228;-76
2021/09/13 02:04:04;;;;;;;19.50;16.80;;;;;;;14.90;86.10;100358.36;94574;1192;81584;-78
2021/09/13 02:06:08;;;;;;;18.80;16.70;;;;;;;14.89;86.06;100359.17;94650;1192;81115;-76
2021/09/13 02:08:12;;;;;;;18.70;16.80;;;;;;;14.86;86.12;100361.58;94613;1192;97740;-76
2021/09/13 02:10:17;;;;;;;18.30;16.50;;;;;;;14.80;86.25;100360.47;94604;1192;86196;-76
2021/09/13 02:12:22;;;;;;;18.90;16.80;;;;;;;14.78;86.31;100361.63;94650;1192;92994;-77
2021/09/13 02:14:26;;;;;;;27.90;17.00;;;;;;;14.77;86.29;100364.55;94605;1192;79026;-77
2021/09/13 02:16:30;;;;;;;17.60;15.70;;;;;;;14.75;86.24;100365.77;94649;1192;81873;-77
2021/09/13 02:18:35;;;;;;;23.90;16.70;;;;;;;14.74;86.33;100366.45;94595;1192;97527;-77
2021/09/13 02:20:39;;;;;;;18.00;16.20;;;;;;;14.76;86.37;100365.94;94581;1193;88153;-77
2021/09/13 02:22:43;;;;;;;19.40;17.30;;;;;;;14.75;86.43;100370.77;94621;1192;93676;-77
2021/09/13 02:24:47;;;;;;;20.30;17.10;;;;;;;14.74;86.29;100367.88;94527;1192;81091;-77
2021/09/13 02:26:51;;;;;;;18.50;16.50;;;;;;;14.74;86.30;100363.34;94626;1192;82450;-77
2021/09/13 02:28:55;;;;;;;19.90;17.30;;;;;;;14.72;86.26;100362.31;94591;1192;97678;-77
2021/09/13 02:30:59;;;;;;;18.90;16.90;;;;;;;14.70;86.34;100366.09;94606;1192;87518;-65
2021/09/13 02:33:06;;;;;;;18.10;16.30;;;;;;;14.69;86.40;100368.58;94565;1192;94560;-66
2021/09/13 02:35:12;;;;;;;18.20;16.30;;;;;;;14.64;86.34;100368.38;94572;1192;78498;-65
2021/09/13 02:37:16;;;;;;;20.30;16.60;;;;;;;14.63;86.44;100369.05;94624;1192;82425;-65
2021/09/13 02:39:20;;;;;;;18.90;16.90;;;;;;;14.63;86.37;100369.89;94586;1192;98869;-81
2021/09/13 02:41:24;;;;;;;18.00;15.80;;;;;;;14.63;86.45;100370.98;94345;1192;88245;-80
2021/09/13 02:43:29;;;;;;;18.90;16.70;;;;;;;14.59;86.45;100366.55;94632;1177;93731;-81
2021/09/13 02:45:34;;;;;;;18.20;16.40;;;;;;;14.59;86.51;100368.61;94577;1193;78884;-78
2021/09/13 02:47:38;;;;;;;18.80;15.90;;;;;;;14.58;86.57;100365.87;94606;1192;80524;-78
2021/09/13 02:49:42;;;;;;;18.50;16.30;;;;;;;14.55;86.57;100364.02;94622;1192;98727;-63
2021/09/13 02:51:46;;;;;;;18.80;16.40;;;;;;;14.56;86.51;100365.44;94609;1193;86507;-65
2021/09/13 02:53:50;;;;;;;18.60;16.70;;;;;;;14.58;86.48;100366.30;94609;1193;94679;-63
2021/09/13 02:55:54;;;;;;;19.40;16.90;;;;;;;14.58;86.49;100361.67;94598;1193;79464;-63
2021/09/13 02:58:02;;;;;;;20.30;16.90;;;;;;;14.58;86.56;100362.02;94608;1192;80486;-63
2021/09/13 03:00:10;;;;;;;18.40;16.50;;;;;;;14.59;86.52;100363.80;94595;1192;98561;-66
2021/09/13 03:02:14;;;;;;;19.30;17.40;;;;;;;14.58;86.47;100366.02;94602;1186;89325;-64
2021/09/13 03:04:18;;;;;;;21.40;16.70;;;;;;;14.56;86.49;100362.35;94588;1193;94300;-73
2021/09/13 03:06:22;;;;;;;18.50;16.60;;;;;;;14.54;86.47;100359.69;94615;1193;80465;-78
2021/09/13 03:08:26;;;;;;;19.90;16.40;;;;;;;14.54;86.56;100357.75;94626;1192;81251;-79
2021/09/13 03:10:31;;;;;;;19.30;17.40;;;;;;;14.53;86.49;100355.93;94592;1192;98489;-78
2021/09/13 03:12:35;;;;;;;18.30;16.30;;;;;;;14.50;86.55;100356.48;94592;1192;87552;-78
2021/09/13 03:14:40;;;;;;;17.40;15.60;;;;;;;14.46;86.62;100360.81;94595;1192;93889;-65
2021/09/13 03:16:44;;;;;;;17.40;15.70;;;;;;;14.47;86.64;100358.20;94610;1192;81595;-65
2021/09/13 03:18:48;;;;;;;17.60;15.80;;;;;;;14.49;86.72;100359.63;94590;1192;80657;-65
2021/09/13 03:20:52;;;;;;;17.70;15.80;;;;;;;14.52;86.67;100359.52;94558;1192;98131;-65
2021/09/13 03:22:56;;;;;;;19.10;17.10;;;;;;;14.51;86.69;100363.63;94611;1193;87508;-65
2021/09/13 03:25:00;;;;;;;19.70;17.30;;;;;;;14.48;86.68;100363.52;94617;1192;93780;-65
2021/09/13 03:27:05;;;;;;;23.70;18.20;;;;;;;14.43;86.65;100365.80;94582;1192;78853;-69
2021/09/13 03:29:09;;;;;;;19.80;17.00;;;;;;;14.41;86.71;100374.41;94590;1192;82743;-69
2021/09/13 03:31:16;;;;;;;19.00;17.00;;;;;;;14.41;86.67;100376.01;94607;1192;98200;-64
2021/09/13 03:33:20;;;;;;;19.40;17.20;;;;;;;14.43;86.69;100377.21;94642;1192;88233;-63
2021/09/13 03:35:25;;;;;;;19.40;17.30;;;;;;;14.45;86.65;100380.48;94526;1192;94117;-62
2021/09/13 03:37:29;;;;;;;19.50;17.50;;;;;;;14.44;86.71;100380.84;94610;1192;79473;-65
2021/09/13 03:39:33;;;;;;;25.20;19.40;;;;;;;14.43;86.66;100381.39;94668;1192;82185;-81
2021/09/13 03:41:37;;;;;;;20.00;17.90;;;;;;;14.43;86.75;100380.14;94625;1192;99569;-78
2021/09/13 03:43:42;;;;;;;20.90;18.60;;;;;;;14.45;86.89;100380.50;94670;1192;87485;-78
2021/09/13 03:45:46;;;;;;;20.60;18.20;;;;;;;14.48;86.87;100379.94;94640;1192;93700;-77
2021/09/13 03:47:53;;;;;;;22.50;18.80;;;;;;;14.49;86.87;100377.39;94611;1192;81505;-80
2021/09/13 03:49:57;;;;;;;19.90;17.90;;;;;;;14.52;86.88;100381.61;94628;1192;80803;-65
2021/09/13 03:52:01;;;;;;;21.70;18.70;;;;;;;14.51;86.89;100380.61;94642;1192;98004;-65
2021/09/13 03:54:05;;;;;;;21.90;19.60;;;;;;;14.51;86.99;100380.27;94667;1192;87993;-66
2021/09/13 03:56:13;;;;;;;20.00;18.00;;;;;;;14.49;86.98;100382.71;94606;1192;93046;-64
2021/09/13 03:58:17;;;;;;;22.60;18.00;;;;;;;14.52;86.98;100381.85;94614;1193;80641;-62
2021/09/13 04:00:25;;;;;;;21.80;18.70;;;;;;;14.56;87.03;100382.59;94635;1192;82283;-78
2021/09/13 04:02:30;;;;;;;22.80;20.20;;;;;;;14.59;87.14;100378.36;94690;1192;97943;-69
2021/09/13 04:04:35;;;;;;;22.60;20.00;;;;;;;14.63;87.17;100381.73;94702;1193;87290;-70
2021/09/13 04:06:44;;;;;;;21.90;19.00;;;;;;;14.67;87.15;100375.60;94661;1193;93391;-69
2021/09/13 04:11:20;;;;;;;21.10;18.90;;;;;;;14.73;87.08;100379.89;94602;1192;80369;-70
2021/09/13 04:13:24;;;;;;;21.00;18.50;;;;;;;14.77;87.24;100379.49;94612;1192;97271;-70
2021/09/13 04:15:29;;;;;;;22.30;19.90;;;;;;;14.79;87.19;100379.85;94620;1192;86581;-70
2021/09/13 04:17:33;;;;;;;21.00;18.90;;;;;;;14.83;87.18;100385.48;94591;1192;92809;-69
2021/09/13 04:19:37;;;;;;;21.50;19.40;;;;;;;14.83;87.15;100385.52;94602;1193;81105;-68
2021/09/13 04:21:41;;;;;;;20.20;18.20;;;;;;;14.87;87.19;100389.19;94608;1192;80779;-69
2021/09/13 04:23:46;;;;;;;20.60;18.60;;;;;;;14.87;87.19;100391.45;94659;1192;98574;-69
2021/09/13 04:25:50;;;;;;;21.80;19.60;;;;;;;14.89;87.28;100388.59;94612;1192;87615;-70
2021/09/13 04:27:54;;;;;;;22.20;19.50;;;;;;;14.91;87.31;100388.27;94625;1192;95118;-68
2021/09/13 04:29:58;;;;;;;20.70;18.70;;;;;;;14.96;87.17;100387.34;94576;1193;80805;-68
2021/09/13 04:32:03;;;;;;;19.90;17.60;;;;;;;14.99;87.24;100385.23;94623;1192;80448;-68
2021/09/13 04:34:08;;;;;;;19.30;17.30;;;;;;;15.01;87.32;100388.05;94623;1192;98558;-67
2021/09/13 04:36:12;;;;;;;21.40;18.80;;;;;;;15.06;87.28;100388.41;94605;1193;87126;-68
2021/09/13 04:38:16;;;;;;;21.60;18.40;;;;;;;15.09;87.26;100391.85;94606;1193;93395;-69
2021/09/13 04:40:21;;;;;;;20.60;18.40;;;;;;;15.13;87.32;100394.77;94567;1192;80235;-68
2021/09/13 04:42:25;;;;;;;20.20;18.10;;;;;;;15.20;87.25;100397.52;94599;1192;80906;-68
2021/09/13 04:44:29;;;;;;;21.60;19.10;;;;;;;15.25;87.23;100396.33;94593;1193;98060;-70
2021/09/13 04:46:33;;;;;;;20.70;18.50;;;;;;;15.28;87.28;100396.17;94618;1192;88172;-69
2021/09/13 04:48:41;;;;;;;19.40;17.40;;;;;;;15.31;87.33;100393.10;94546;1192;94298;-71
2021/09/13 04:50:45;;;;;;;19.40;17.20;;;;;;;15.36;87.27;100396.13;94613;1192;80846;-69
2021/09/13 04:52:52;;;;;;;20.30;18.10;;;;;;;15.39;87.17;100399.15;94604;1192;82457;-70
2021/09/13 04:54:56;;;;;;;20.90;18.50;;;;;;;15.46;87.18;100400.66;94607;1192;98063;-71
2021/09/13 04:57:00;;;;;;;19.40;17.40;;;;;;;15.52;87.15;100401.48;94600;1192;87668;-69
2021/09/13 04:59:04;;;;;;;20.80;18.60;;;;;;;15.56;87.12;100403.54;94607;1193;92998;-68
2021/09/13 05:01:09;;;;;;;20.90;18.40;;;;;;;15.60;87.13;100408.39;94583;1193;79837;-64
2021/09/13 05:03:13;;;;;;;20.40;18.10;;;;;;;15.63;87.10;100409.31;94580;1192;81012;-64
2021/09/13 05:05:18;;;;;;;20.20;18.00;;;;;;;15.67;87.15;100412.11;94614;1192;98367;-64
2021/09/13 05:07:22;;;;;;;21.20;19.00;;;;;;;15.70;87.14;100412.93;94630;1192;87161;-64
2021/09/13 05:09:26;;;;;;;21.30;18.30;;;;;;;15.74;87.11;100414.87;94573;1192;93488;-77
2021/09/13 05:11:31;;;;;;;19.60;17.60;;;;;;;15.76;87.02;100408.95;94585;1192;80267;-79
2021/09/13 05:13:36;;;;;;;22.70;19.00;;;;;;;15.78;87.04;100414.44;94605;1193;81323;-75
2021/09/13 05:15:48;;;;;;;21.20;18.20;;;;;;;15.80;87.06;100414.19;94573;1192;99364;-74
2021/09/13 05:17:53;;;;;;;21.10;18.90;;;;;;;15.82;87.07;100416.42;94587;1192;87073;-75
2021/09/13 05:19:57;;;;;;;22.30;19.70;;;;;;;15.82;87.06;100418.32;94598;1193;92196;-74
2021/09/13 05:22:01;;;;;;;21.00;18.80;;;;;;;15.82;87.17;100416.09;94567;1193;80219;-71
2021/09/13 05:24:07;;;;;;;22.30;19.80;;;;;;;15.86;87.11;100414.60;94616;1193;80235;-72
2021/09/13 05:26:11;;;;;;;21.00;18.60;;;;;;;15.90;87.05;100413.77;94595;1192;99117;-63
2021/09/13 05:28:15;;;;;;;21.10;18.80;;;;;;;15.95;87.13;100410.78;94581;1193;87567;-62
2021/09/13 05:30:20;;;;;;;23.80;21.40;;;;;;;15.99;87.09;100414.73;94565;1192;92694;-77
2021/09/13 05:32:25;;;;;;;22.00;19.20;;;;;;;16.03;87.09;100417.09;94525;1193;79405;-75
2021/09/13 05:34:29;;;;;;;22.60;19.70;;;;;;;16.07;87.14;100414.33;94580;1192;82073;-63
2021/09/13 05:36:34;;;;;;;21.70;19.40;;;;;;;16.10;87.08;100420.08;94540;1177;99801;-64
2021/09/13 05:38:38;;;;;;;20.40;18.40;;;;;;;16.14;87.00;100421.50;94580;1193;86824;-62
2021/09/13 05:40:45;;;;;;;24.10;20.40;;;;;;;16.18;87.01;100421.34;94578;1193;94246;-75
2021/09/13 05:42:49;;;;;;;23.80;20.20;;;;;;;16.24;87.00;100421.90;94572;1193;78804;-74
2021/09/13 05:44:56;;;;;;;22.80;20.30;;;;;;;16.27;87.05;100420.57;94581;1192;81461;-63
2021/09/13 05:47:01;;;;;;;23.40;20.30;;;;;;;16.29;86.94;100419.58;94595;1192;98025;-64
2021/09/13 05:49:10;;;;;;;22.60;20.20;;;;;;;16.34;86.81;100421.17;94548;1192;88507;-64
2021/09/13 05:51:14;;;;;;;21.70;19.50;;;;;;;16.33;86.80;100418.16;94586;1192;93435;-63
2021/09/13 05:53:19;;;;;;;22.60;20.30;;;;;;;16.34;86.83;100417.52;94565;1192;79333;-63
2021/09/13 05:55:23;;;;;;;24.70;20.40;;;;;;;16.38;86.84;100422.52;94588;1193;80832;-64
2021/09/13 05:57:27;;;;;;;22.90;20.60;;;;;;;16.41;86.76;100422.06;94598;1193;98807;-63
2021/09/13 05:59:31;;;;;;;21.50;19.10;;;;;;;16.46;86.62;100422.79;94549;1192;86527;-72
2021/09/13 06:01:35;;;;;;;22.70;20.20;;;;;;;16.47;86.63;100423.83;94558;1193;94874;-72
2021/09/13 06:03:40;;;;;;;22.70;20.30;;;;;;;16.50;86.68;100427.71;94591;1186;79475;-73
2021/09/13 06:05:44;;;;;;;23.50;21.00;;;;;;;16.53;86.62;100423.58;94566;1192;82333;-67
2021/09/13 06:07:48;;;;;;;24.90;21.30;;;;;;;16.56;86.56;100422.59;94578;1192;97892;-66
2021/09/13 06:09:52;;;;;;;24.80;22.20;;;;;;;16.64;86.61;100425.73;94601;1192;88520;-74
2021/09/13 06:11:56;;;;;;;22.90;20.50;;;;;;;16.68;86.59;100423.11;94560;1192;92737;-75
2021/09/13 06:14:01;;;;;;;23.00;20.10;;;;;;;16.75;86.54;100421.06;94559;1192;79667;-75
2021/09/13 06:16:08;;;;;;;22.30;20.00;;;;;;;16.80;86.50;100422.96;94610;1192;80519;-75
2021/09/13 06:18:14;;;;;;;22.70;20.40;;;;;;;16.88;86.42;100419.75;94642;1192;97738;-74
2021/09/13 06:20:20;;;;;;;27.10;22.80;;;;;;;16.94;86.47;100420.81;94575;1192;87091;-75
2021/09/13 06:22:25;;;;;;;23.10;20.80;;;;;;;16.99;86.34;100419.70;94574;1192;93560;-75
2021/09/13 06:24:29;;;;;;;22.70;20.40;;;;;;;17.01;86.34;100421.34;94618;1192;80853;-66
2021/09/13 06:26:33;;;;;;;22.40;20.00;;;;;;;17.08;86.31;100419.83;94379;1193;80699;-65
2021/09/13 06:28:38;;;;;;;21.20;18.90;;;;;;;17.17;86.39;100419.40;94623;1192;99150;-66
2021/09/13 06:30:43;;;;;;;22.40;20.10;;;;;;;17.22;86.48;100417.09;94601;1192;86481;-74
2021/09/13 06:32:47;;;;;;;24.10;21.00;;;;;;;17.31;86.37;100418.54;94563;1192;92133;-75
2021/09/13 06:34:51;;;;;;;23.70;21.40;;;;;;;17.36;86.36;100417.65;94605;1192;80149;-74
2021/09/13 06:36:55;;;;;;;23.30;20.90;;;;;;;17.42;86.35;100420.91;94628;1192;80730;-73
2021/09/13 06:39:00;;;;;;;22.20;19.80;;;;;;;17.48;86.39;100418.05;94611;1192;98446;-74
2021/09/13 06:41:04;;;;;;;26.10;22.00;;;;;;;17.54;86.09;100423.49;94626;1192;87676;-64
2021/09/13 06:43:10;;;;;;;23.10;20.70;;;;;;;17.60;86.00;100424.15;94610;1192;94881;-64
2021/09/13 06:45:19;;;;;;;23.90;21.30;;;;;;;17.62;85.87;100422.11;94653;1192;78717;-63
2021/09/13 06:47:43;;;;;;;24.30;21.20;;;;;;;17.59;85.82;100421.39;94584;1192;80347;-65
2021/09/13 06:49:47;;;;;;;;;;;;;;;17.61;85.67;100427.61;94603;1192;100254;-63
2021/09/13 06:51:54;;;;;;;21.90;19.70;;;;;;;17.61;85.67;100424.23;94582;1192;88432;-65
2021/09/13 06:53:59;;;;;;;23.70;20.90;;;;;;;17.64;85.63;100425.07;94612;1192;94405;-65
2021/09/13 06:56:04;;;;;;;23.00;20.70;;;;;;;17.65;85.56;100426.89;94622;1192;79386;-73
2021/09/13 06:58:09;;;;;;;24.60;22.00;;;;;;;17.70;85.63;100428.12;94669;1192;79934;-71
2021/09/13 07:00:20;;;;;;;25.40;21.40;;;;;;;17.76;85.68;100429.13;94550;1192;98934;-76
2021/09/13 07:02:25;;;;;;;25.60;21.10;;;;;;;17.83;85.75;100432.48;94614;1192;86775;-70
2021/09/13 07:04:30;;;;;;;24.30;21.60;;;;;;;17.96;85.80;100432.20;94553;1192;94970;-65
2021/09/13 07:06:34;;;;;;;24.90;21.70;;;;;;;18.08;85.87;100431.79;94611;1192;79098;-64
2021/09/13 07:08:38;;;;;;;24.90;22.30;;;;;;;18.18;85.73;100434.43;94611;1192;81455;-68
2021/09/13 07:10:45;;;;;;;25.20;22.10;;;;;;;18.26;85.60;100433.53;94588;1192;98420;-69
2021/09/13 07:12:50;;;;;;;23.40;20.90;;;;;;;18.30;85.46;100438.37;94572;1192;87013;-69
2021/09/13 07:14:59;;;;;;;22.80;20.20;;;;;;;18.38;85.57;100438.86;94593;1192;92421;-68
2021/09/13 07:17:07;;;;;;;22.80;20.30;;;;;;;18.49;85.28;100432.36;94601;1192;80923;-69
2021/09/13 07:19:11;;;;;;;24.30;21.90;;;;;;;18.57;85.22;100432.92;94590;1192;81069;-68
2021/09/13 07:21:23;;;;;;;23.50;20.10;;;;;;;18.64;85.02;100430.52;94605;1192;98220;-67
2021/09/13 07:23:27;;;;;;;23.90;21.50;;;;;;;18.71;84.93;100431.98;94575;1192;87752;-67
2021/09/13 07:25:31;;;;;;;23.50;21.00;;;;;;;18.75;84.66;100429.66;94578;1192;94115;-71
2021/09/13 07:27:36;;;;;;;23.30;20.90;;;;;;;18.75;84.51;100432.95;94563;1192;81294;-72
2021/09/13 07:29:41;;;;;;;23.70;20.60;;;;;;;18.75;84.57;100430.71;94628;1192;80493;-67
2021/09/13 07:31:45;;;;;;;23.80;20.40;;;;;;;18.79;84.60;100434.77;94617;1193;99894;-67
2021/09/13 07:33:50;;;;;;;23.50;21.10;;;;;;;18.83;84.38;100433.92;94592;1192;86096;-67
2021/09/13 07:35:57;;;;;;;23.70;21.00;;;;;;;18.95;84.49;100434.66;94543;1192;93869;-68
2021/09/13 07:38:01;;;;;;;24.20;21.70;;;;;;;19.14;84.18;100439.05;94547;1192;82674;-70
2021/09/13 07:40:09;;;;;;;23.30;19.80;;;;;;;19.37;84.21;100438.63;94568;1193;81538;-69
2021/09/13 07:42:14;;;;;;;25.60;21.50;;;;;;;19.58;84.02;100439.14;94601;1192;97470;-67
2021/09/13 07:44:18;;;;;;;24.90;20.40;;;;;;;19.91;84.08;100444.30;94555;1193;86684;-70
2021/09/13 07:46:23;;;;;;;23.90;21.40;;;;;;;20.19;83.73;100438.02;94563;1193;93592;-65
2021/09/13 07:48:27;;;;;;;23.60;20.70;;;;;;;20.33;83.39;100439.79;94568;1192;80535;-66
2021/09/13 07:50:32;;;;;;;21.80;19.00;;;;;;;20.38;82.98;100440.02;94518;1193;81941;-65
2021/09/13 07:52:36;;;;;;;22.00;19.60;;;;;;;20.36;82.88;100438.57;94564;1193;98482;-66
2021/09/13 07:54:40;;;;;;;25.20;20.20;;;;;;;20.42;82.54;100436.77;94594;1192;87220;-72
2021/09/13 07:56:45;;;;;;;20.90;18.80;;;;;;;20.54;82.25;100438.83;94566;1192;92348;-75
2021/09/13 07:58:49;;;;;;;20.90;18.90;;;;;;;20.68;81.90;100441.77;94594;1193;79661;-72
2021/09/13 08:00:54;;;;;;;22.60;19.80;;;;;;;20.89;81.66;100441.48;94576;1192;80502;-66
2021/09/13 08:02:59;;;;;;;20.90;18.70;;;;;;;21.28;81.45;100444.66;94538;1192;98661;-67
2021/09/13 08:05:04;;;;;;;21.20;18.90;;;;;;;21.56;81.09;100445.83;94522;1192;87976;-73
2021/09/13 08:07:09;;;;;;;20.50;18.10;;;;;;;21.84;81.07;100445.73;94534;1193;94149;-73
2021/09/13 08:09:16;;;;;;;18.40;16.50;;;;;;;22.38;80.89;100454.52;94651;1170;77495;-66
2021/09/13 08:11:24;;;;;;;18.90;17.00;;;;;;;23.06;80.09;100442.83;94434;1192;80699;-67
2021/09/13 08:13:29;;;;;;;17.10;15.50;;;;;;;23.77;79.87;100444.22;94252;1193;99141;-67
2021/09/13 08:15:36;;;;;;;17.70;16.00;;;;;;;25.13;78.51;100442.95;94517;1192;88020;-73
2021/09/13 08:17:40;;;;;;;16.20;14.70;;;;;;;26.14;77.00;100449.25;94544;1193;93255;-74
2021/09/13 08:19:44;;;;;;;15.90;14.40;;;;;;;27.34;74.83;100446.76;94530;1193;80088;-73
2021/09/13 08:21:49;;;;;;;15.30;13.80;;;;;;;27.82;72.98;100447.44;94525;1192;82369;-73
2021/09/13 08:23:53;;;;;;;14.60;13.20;;;;;;;28.62;71.81;100447.63;94522;1192;98946;-66
2021/09/13 08:25:57;;;;;;;15.10;13.70;;;;;;;29.28;69.80;100446.77;94530;1192;86848;-66
2021/09/13 08:28:01;;;;;;;15.10;13.60;;;;;;;30.05;67.34;100446.92;94537;1192;94248;-66
2021/09/13 08:30:08;;;;;;;14.20;12.80;;;;;;;30.50;65.51;100447.63;94560;1193;80162;-73
2021/09/13 08:32:12;;;;;;;14.30;13.00;;;;;;;30.66;64.39;100448.77;94577;1193;80990;-73
2021/09/13 08:34:17;;;;;;;13.80;12.50;;;;;;;31.22;62.46;100445.73;94547;1192;98610;-73
2021/09/13 08:36:21;;;;;;;13.10;11.90;;;;;;;31.42;61.24;100449.46;94550;1192;87164;-74
2021/09/13 08:38:25;;;;;;;12.20;11.20;;;;;;;31.53;60.08;100450.70;94590;1193;93133;-72
2021/09/13 08:40:29;;;;;;;12.50;11.40;;;;;;;31.38;59.38;100449.26;94569;1192;78181;-66
2021/09/13 08:42:42;;;;;;;12.20;11.10;;;;;;;31.72;58.56;100445.86;94558;1192;82714;-66
2021/09/13 08:44:48;;;;;;;;;;;;;;;31.78;58.06;100445.17;94609;1192;97700;-67
2021/09/13 08:47:00;;;;;;;11.40;10.30;;;;;;;31.57;57.30;100449.48;94568;1193;89044;-67
2021/09/13 08:49:06;;;;;;;11.10;10.10;;;;;;;31.58;56.64;100446.81;94528;1193;95745;-71
2021/09/13 08:51:30;;;;;;;9.90;9.00;;;;;;;31.52;56.60;100450.09;94555;1193;78810;-66
2021/09/13 08:53:37;;;;;;;10.30;9.40;;;;;;;31.70;56.49;100449.73;94576;1192;80471;-71
2021/09/13 08:55:44;;;;;;;9.00;8.20;;;;;;;32.08;55.37;100448.09;94573;1192;98748;-67
2021/09/13 08:57:50;;;;;;;9.50;8.60;;;;;;;32.23;54.06;100447.09;94589;1192;88455;-67
2021/09/13 08:59:55;;;;;;;8.90;8.10;;;;;;;32.40;53.48;100447.84;94554;1192;94452;-65
2021/09/13 09:02:00;;;;;;;7.30;6.60;;;;;;;32.37;53.13;100453.01;94578;1193;78890;-65
2021/09/13 09:04:06;;;;;;;7.00;5.80;;;;;;;32.72;52.83;100452.19;94556;1192;81410;-71
2021/09/13 09:06:29;;;;;;;6.60;6.00;;;;;;;32.40;51.30;100453.98;94443;1192;99852;-72
2021/09/13 09:08:36;;;;;;;6.90;6.30;;;;;;;32.43;52.08;100457.40;94563;1192;86572;-73
2021/09/13 09:10:54;;;;;;;6.80;6.10;;;;;;;32.66;51.45;100454.09;94545;1192;94618;-66
2021/09/13 09:13:08;;;;;;;6.60;5.90;;;;;;;31.85;51.42;100453.80;94537;1192;80180;-66
2021/09/13 09:15:12;;;;;;;7.10;6.50;;;;;;;30.88;50.84;100457.86;94565;1192;81869;-73
2021/09/13 09:17:25;;;;;;;6.30;5.80;;;;;;;30.00;51.31;100458.27;94549;1192;98277;-73
2021/09/13 09:19:31;;;;;;;5.80;5.30;;;;;;;29.34;51.84;100457.83;94558;1193;88030;-73
2021/09/13 09:21:35;;;;;;;8.50;5.40;;;;;;;28.92;52.72;100457.06;94551;1177;94029;-73
2021/09/13 09:24:00;;;;;;;6.40;5.40;;;;;;;28.51;52.85;100457.41;94568;1193;79626;-73
2021/09/13 09:26:13;;;;;;;5.70;5.10;;;;;;;28.11;53.35;100456.55;94535;1193;82199;-73
2021/09/13 09:28:18;;;;;;;7.20;5.50;;;;;;;27.61;53.27;100457.72;94592;1192;98390;-72
2021/09/13 09:30:36;;;;;;;5.00;4.60;;;;;;;27.38;53.84;100454.48;94544;1193;87971;-65
2021/09/13 09:32:42;;;;;;;7.80;6.00;;;;;;;26.96;53.86;100457.06;94561;1193;94004;-66
2021/09/13 09:34:47;;;;;;;6.10;5.20;;;;;;;26.50;54.51;100460.45;94524;1192;78803;-65